createdAt,value
2022-09-13T00:02:21.604Z,43.49
2022-09-13T00:07:28.631Z,43.56
2022-09-13T00:12:35.832Z,43.56
2022-09-13T00:17:43.034Z,43.60
2022-09-13T00:22:50.232Z,44.12
2022-09-13T00:27:57.386Z,44.44
2022-09-13T00:33:04.843Z,44.69
2022-09-13T00:38:11.827Z,44.88
2022-09-13T00:43:18.976Z,45.13
2022-09-13T00:48:26.151Z,45.30
2022-09-13T00:53:33.534Z,45.49
2022-09-13T00:58:40.745Z,45.65
2022-09-13T01:03:48.223Z,45.73
2022-09-13T01:08:55.177Z,45.89
2022-09-13T01:14:02.362Z,46.00
2022-09-13T01:19:09.689Z,46.07
2022-09-13T01:24:16.769Z,46.21
2022-09-13T01:29:23.980Z,46.31
2022-09-13T01:34:31.200Z,46.36
2022-09-13T01:39:38.426Z,46.43
2022-09-13T01:44:45.694Z,46.49
2022-09-13T01:49:52.935Z,46.58
2022-09-13T01:55:00.115Z,46.60
2022-09-13T02:00:07.300Z,46.60
2022-09-13T02:05:14.493Z,46.69
2022-09-13T02:10:21.728Z,46.73
2022-09-13T02:15:28.898Z,46.80
2022-09-13T02:20:36.166Z,46.75
2022-09-13T02:25:43.347Z,46.84
2022-09-13T02:30:50.533Z,46.88
2022-09-13T02:35:57.742Z,46.91
2022-09-13T02:41:05.453Z,46.93
2022-09-13T02:46:12.653Z,46.94
2022-09-13T02:51:19.869Z,46.97
2022-09-13T02:56:27.038Z,46.99
2022-09-13T03:01:34.331Z,46.98
2022-09-13T03:06:41.518Z,46.89
2022-09-13T03:11:48.692Z,47.03
2022-09-13T03:16:56.045Z,47.06
2022-09-13T03:22:03.197Z,47.10
2022-09-13T03:27:10.323Z,47.13
2022-09-13T03:32:17.587Z,47.04
2022-09-13T03:37:24.851Z,47.04
2022-09-13T03:42:32.040Z,47.03
2022-09-13T03:47:39.209Z,47.05
2022-09-13T03:52:46.718Z,47.12
2022-09-13T03:57:54.049Z,47.12
2022-09-13T04:03:01.254Z,47.19
2022-09-13T04:08:08.506Z,47.10
2022-09-13T04:13:15.664Z,47.04
2022-09-13T04:18:22.849Z,47.01
2022-09-13T04:23:30.166Z,47.06
2022-09-13T04:28:37.225Z,47.06
2022-09-13T04:33:44.408Z,46.99
2022-09-13T04:38:51.598Z,47.01
2022-09-13T04:43:58.814Z,47.07
2022-09-13T04:49:05.977Z,47.18
2022-09-13T04:54:15.546Z,47.17
2022-09-13T04:59:20.456Z,47.20
2022-09-13T05:04:27.697Z,47.18
2022-09-13T05:09:34.911Z,47.20
2022-09-13T05:14:42.090Z,47.25
2022-09-13T05:19:49.331Z,47.28
2022-09-13T05:24:56.618Z,47.30
2022-09-13T05:30:03.748Z,47.23
2022-09-13T05:35:10.927Z,47.20
2022-09-13T05:40:18.188Z,47.18
2022-09-13T05:45:25.317Z,47.13
2022-09-13T05:50:57.202Z,47.18
2022-09-13T05:55:39.782Z,47.16
2022-09-13T06:00:46.922Z,47.17
2022-09-13T06:05:54.160Z,47.09
2022-09-13T06:11:01.405Z,47.11
2022-09-13T06:16:08.555Z,47.17
2022-09-13T06:21:15.707Z,47.13
2022-09-13T06:26:22.946Z,47.17
2022-09-13T06:31:30.306Z,47.14
2022-09-13T06:36:37.359Z,47.14
2022-09-13T06:41:44.723Z,46.97
2022-09-13T06:46:51.808Z,46.84
2022-09-13T06:51:59.076Z,47.04
2022-09-13T06:57:06.403Z,47.07
2022-09-13T07:02:13.577Z,46.98
2022-09-13T07:07:20.733Z,46.97
2022-09-13T07:12:28.004Z,47.21
2022-09-13T07:17:35.173Z,47.31
2022-09-13T07:22:42.327Z,47.32
2022-09-13T07:27:49.594Z,47.36
2022-09-13T07:32:56.719Z,47.45
2022-09-13T07:38:03.923Z,46.98
2022-09-13T07:43:11.170Z,47.39
2022-09-13T07:48:18.393Z,47.62
2022-09-13T07:53:25.805Z,47.79
2022-09-13T07:58:33.109Z,47.89
2022-09-13T08:03:40.176Z,47.94
2022-09-13T08:08:47.398Z,48.03
2022-09-13T08:13:54.648Z,48.06
2022-09-13T08:19:01.811Z,48.14
2022-09-13T08:24:09.030Z,48.25
2022-09-13T08:29:16.610Z,48.27
2022-09-13T08:34:23.833Z,48.34
2022-09-13T08:39:33.446Z,48.35
2022-09-13T08:44:38.196Z,48.37
2022-09-13T08:49:45.351Z,48.39
2022-09-13T08:54:57.482Z,48.41
2022-09-13T08:59:59.866Z,48.45
2022-09-13T09:05:07.065Z,48.49
2022-09-13T09:10:14.222Z,48.55
2022-09-13T09:15:21.485Z,48.59
2022-09-13T09:20:28.645Z,48.59
2022-09-13T09:25:35.839Z,48.80
2022-09-13T09:30:43.106Z,48.84
2022-09-13T09:35:50.191Z,48.78
2022-09-13T09:40:57.396Z,48.77
2022-09-13T09:46:04.689Z,48.78
2022-09-13T09:51:11.755Z,48.94
2022-09-13T09:56:18.913Z,48.94
2022-09-13T10:01:26.250Z,48.94
2022-09-13T10:06:33.363Z,48.95
2022-09-13T10:11:40.605Z,49.00
2022-09-13T10:16:47.893Z,49.02
2022-09-13T10:21:55.031Z,49.03
2022-09-13T10:27:02.256Z,49.03
2022-09-13T10:32:09.724Z,49.06
2022-09-13T10:37:16.918Z,49.06
2022-09-13T10:42:24.133Z,49.16
2022-09-13T10:47:31.448Z,49.29
2022-09-13T10:52:38.598Z,49.48
2022-09-13T10:57:45.839Z,49.57
2022-09-13T11:02:53.069Z,49.50
2022-09-13T11:08:00.261Z,49.55
2022-09-13T11:13:07.475Z,49.55
2022-09-13T11:18:14.739Z,49.59
2022-09-13T11:23:21.867Z,49.64
2022-09-13T11:28:29.083Z,49.77
2022-09-13T11:33:36.390Z,49.78
2022-09-13T11:38:43.480Z,49.74
2022-09-13T11:43:50.790Z,49.77
2022-09-13T11:48:58.026Z,49.74
2022-09-13T11:54:05.152Z,49.73
2022-09-13T11:59:15.600Z,49.78
2022-09-13T12:04:19.675Z,49.77
2022-09-13T12:09:26.906Z,49.80
2022-09-13T12:14:34.162Z,49.84
2022-09-13T12:19:41.460Z,49.84
2022-09-13T12:24:48.565Z,49.98
2022-09-13T12:29:55.736Z,49.93
2022-09-13T12:35:03.026Z,49.97
2022-09-13T12:40:10.311Z,50.02
2022-09-13T12:45:17.432Z,50.22
2022-09-13T12:55:46.486Z,50.32
2022-09-13T13:00:39.068Z,50.42
2022-09-13T13:05:46.188Z,50.67
2022-09-13T13:10:53.329Z,50.62
2022-09-13T13:16:00.547Z,50.58
2022-09-13T13:21:07.661Z,50.62
2022-09-13T13:26:14.802Z,50.65
2022-09-13T13:31:22.125Z,50.83
2022-09-13T13:36:29.234Z,50.92
2022-09-13T13:41:36.397Z,51.02
2022-09-13T13:46:43.593Z,51.29
2022-09-13T13:51:50.922Z,51.30
2022-09-13T13:56:58.013Z,51.32
2022-09-13T14:02:05.225Z,51.42
2022-09-13T14:07:19.408Z,51.39
2022-09-13T14:12:19.648Z,51.38
2022-09-13T14:17:26.953Z,51.35
2022-09-13T14:22:34.343Z,51.41
2022-09-13T14:27:41.333Z,51.41
2022-09-13T14:32:48.547Z,51.47
2022-09-13T14:37:55.808Z,51.52
2022-09-13T14:43:02.953Z,51.53
2022-09-13T14:48:10.183Z,51.53
2022-09-13T14:53:17.432Z,51.54
2022-09-13T14:58:24.609Z,51.54
2022-09-13T15:03:31.766Z,51.50
2022-09-13T15:08:39.050Z,51.52
2022-09-13T15:13:46.185Z,51.54
2022-09-13T15:18:53.373Z,51.58
2022-09-13T15:24:00.634Z,51.58
2022-09-13T15:29:07.800Z,51.62
2022-09-13T15:34:15.011Z,51.58
2022-09-13T15:39:22.230Z,51.65
2022-09-13T15:44:29.466Z,51.63
2022-09-13T15:49:36.710Z,51.67
2022-09-13T15:54:44.039Z,51.66
2022-09-13T15:59:51.135Z,51.70
2022-09-13T16:04:58.405Z,51.67
2022-09-13T16:10:05.693Z,51.70
2022-09-13T16:15:12.856Z,51.70
2022-09-13T16:20:20.063Z,51.69
2022-09-13T16:25:27.523Z,51.73
2022-09-13T16:30:34.589Z,51.77
2022-09-13T16:35:41.764Z,51.83
2022-09-13T16:40:49.093Z,52.18
2022-09-13T16:45:56.183Z,51.96
2022-09-13T16:51:03.406Z,52.00
2022-09-13T16:56:10.616Z,51.98
2022-09-13T17:01:17.773Z,52.16
2022-09-13T17:06:24.942Z,52.10
2022-09-13T17:11:32.146Z,52.31
2022-09-13T17:16:39.432Z,52.29
2022-09-13T17:21:46.510Z,52.22
2022-09-13T17:26:53.827Z,52.33
2022-09-13T17:32:00.918Z,52.44
2022-09-13T17:37:08.126Z,52.57
2022-09-13T17:42:16.171Z,52.93
2022-09-13T17:47:22.587Z,52.67
2022-09-13T17:52:34.205Z,52.60
2022-09-13T17:57:37.074Z,53.00
2022-09-13T18:02:44.226Z,53.10
2022-09-13T18:07:52.560Z,52.88
2022-09-13T18:12:59.895Z,53.35
2022-09-13T18:18:07.399Z,53.37
2022-09-13T18:23:14.911Z,53.68
2022-09-13T18:28:24.801Z,53.53
2022-09-13T18:33:32.394Z,53.70
2022-09-13T18:38:40.037Z,53.80
2022-09-13T18:43:50.600Z,54.58
2022-09-13T18:48:55.337Z,54.52
2022-09-13T18:54:03.058Z,53.64
2022-09-13T18:59:10.784Z,53.39
2022-09-13T19:04:18.179Z,53.41
2022-09-13T19:09:25.901Z,53.62
2022-09-13T19:14:33.620Z,54.44
2022-09-13T19:19:41.127Z,54.22
2022-09-13T19:24:48.742Z,53.90
2022-09-13T19:29:56.485Z,53.59
2022-09-13T19:35:04.079Z,53.54
2022-09-13T19:40:11.810Z,53.89
2022-09-13T19:45:19.323Z,53.57
2022-09-13T19:50:26.915Z,53.31
2022-09-13T19:55:34.532Z,53.85
2022-09-13T20:00:42.133Z,53.57
2022-09-13T20:05:49.663Z,53.50
2022-09-13T20:10:57.189Z,53.50
2022-09-13T20:16:04.869Z,53.80
2022-09-13T20:21:12.405Z,54.18
2022-09-13T20:26:20.014Z,54.26
2022-09-13T20:31:27.661Z,54.31
2022-09-13T20:36:35.239Z,54.44
2022-09-13T20:41:42.859Z,54.36
2022-09-13T20:46:50.489Z,54.02
2022-09-13T20:51:57.979Z,53.93
2022-09-13T20:57:05.289Z,54.09
2022-09-13T21:02:12.624Z,54.05
2022-09-13T21:07:19.718Z,54.03
2022-09-13T21:12:26.898Z,54.26
2022-09-13T21:17:34.250Z,54.18
2022-09-13T21:22:41.318Z,54.41
2022-09-13T21:27:48.512Z,54.51
2022-09-13T21:32:55.772Z,54.36
2022-09-13T21:38:02.998Z,54.47
2022-09-13T21:43:10.242Z,54.69
2022-09-13T21:48:17.547Z,54.73
2022-09-13T21:53:24.717Z,54.79
2022-09-13T21:58:31.981Z,54.73
2022-09-13T22:03:39.246Z,54.73
2022-09-13T22:08:46.384Z,54.27
2022-09-13T22:13:53.584Z,54.57
2022-09-13T22:19:03.283Z,54.65
2022-09-13T22:24:07.943Z,54.72
2022-09-13T22:29:15.190Z,54.86
2022-09-13T22:34:22.413Z,54.86
2022-09-13T22:39:29.590Z,54.96
2022-09-13T22:44:36.806Z,54.81
2022-09-13T22:49:44.030Z,54.76
2022-09-13T22:54:51.208Z,54.66
2022-09-13T22:59:58.477Z,54.68
2022-09-13T23:05:05.753Z,54.79
2022-09-13T23:10:12.932Z,54.75
2022-09-13T23:15:20.146Z,54.79
2022-09-13T23:20:27.452Z,54.92
2022-09-13T23:25:34.594Z,54.83
2022-09-13T23:30:41.842Z,54.70
2022-09-13T23:35:49.077Z,54.57
2022-09-13T23:40:56.263Z,54.54
2022-09-13T23:46:03.552Z,54.61
2022-09-13T23:51:10.770Z,54.51
2022-09-13T23:56:17.864Z,54.55
